SDM0304 UWWW-UUWW
Flight info
| Callsign | SDM0304 |
|---|---|
| Flight time | 1h 28m |
| Altitude | 38000 |
| Route | REDMI2X REDMI T173 BMK T750 OKSUD T787 OTKOL T784 LARNO T291 URIDU L158 DIMGI DIMGI3A |
| Aircraft | A319/M-SDE3FGHIRWY/LB1 |
Departure
| Time | 2026-05-04 19:11 |
|---|---|
| Airport | Kurumoch International Airport (UWWW) |
Arrival
| Time | 2026-05-04 20:39 |
|---|---|
| Airport | Vnukovo International Airport (UUWW) |
| Time | Latitude | Longitude | Altitude | Speed | Heading |
|---|---|---|---|---|---|
| 2026-05-04 18:54 | 53.51098 | 50.16159 | 448 ft | 0 kts | 332° |
| 2026-05-04 19:08 | 53.51101 | 50.16156 | 447 ft | 2 kts | 332° |
| 2026-05-04 19:08 | 53.51146 | 50.16143 | 447 ft | 11 kts | 18° |
| 2026-05-04 19:08 | 53.51197 | 50.16287 | 447 ft | 19 kts | 57° |
| 2026-05-04 19:09 | 53.51269 | 50.16491 | 447 ft | 21 kts | 60° |
| 2026-05-04 19:09 | 53.51338 | 50.16706 | 447 ft | 21 kts | 62° |
| 2026-05-04 19:09 | 53.51406 | 50.16924 | 447 ft | 21 kts | 63° |
| 2026-05-04 19:09 | 53.51440 | 50.17086 | 449 ft | 10 kts | 123° |
| 2026-05-04 19:10 | 53.51402 | 50.17118 | 449 ft | 4 kts | 160° |
| 2026-05-04 19:10 | 53.51351 | 50.17150 | 450 ft | 27 kts | 160° |
| 2026-05-04 19:10 | 53.50905 | 50.17415 | 440 ft | 105 kts | 161° |
| 2026-05-04 19:10 | 53.50021 | 50.17944 | 455 ft | 161 kts | 160° |
| 2026-05-04 19:11 | 53.48979 | 50.18585 | 1132 ft | 153 kts | 161° |
| 2026-05-04 19:11 | 53.47955 | 50.19204 | 1649 ft | 164 kts | 162° |
| 2026-05-04 19:11 | 53.46806 | 50.19885 | 1986 ft | 186 kts | 161° |
| 2026-05-04 19:11 | 53.45513 | 50.20649 | 2323 ft | 209 kts | 161° |
| 2026-05-04 19:12 | 53.44094 | 50.21492 | 2889 ft | 220 kts | 160° |
| 2026-05-04 19:12 | 53.41093 | 50.22669 | 4436 ft | 229 kts | 194° |
| 2026-05-04 19:12 | 53.39720 | 50.21301 | 4984 ft | 240 kts | 234° |
| 2026-05-04 19:13 | 53.38907 | 50.18863 | 5673 ft | 247 kts | 251° |
| 2026-05-04 19:13 | 53.38340 | 50.16095 | 6540 ft | 250 kts | 257° |
| 2026-05-04 19:13 | 53.37853 | 50.13319 | 7368 ft | 253 kts | 257° |
| 2026-05-04 19:13 | 53.37365 | 50.10464 | 8228 ft | 257 kts | 260° |
| 2026-05-04 19:14 | 53.37387 | 50.07516 | 9056 ft | 255 kts | 290° |
| 2026-05-04 19:14 | 53.38241 | 50.04949 | 9915 ft | 252 kts | 317° |
| 2026-05-04 19:14 | 53.39690 | 50.03326 | 10708 ft | 250 kts | 340° |
| 2026-05-04 19:14 | 53.41332 | 50.02341 | 11541 ft | 252 kts | 341° |
| 2026-05-04 19:15 | 53.42994 | 50.01353 | 12365 ft | 255 kts | 340° |
| 2026-05-04 19:15 | 53.44651 | 50.00365 | 13164 ft | 258 kts | 340° |
| 2026-05-04 19:15 | 53.46338 | 49.99356 | 13931 ft | 261 kts | 339° |
| 2026-05-04 19:15 | 53.48095 | 49.98301 | 14651 ft | 264 kts | 339° |
| 2026-05-04 19:16 | 53.49826 | 49.97256 | 15379 ft | 266 kts | 339° |
| 2026-05-04 19:16 | 53.51573 | 49.96198 | 16102 ft | 268 kts | 339° |
| 2026-05-04 19:16 | 53.53333 | 49.95133 | 16827 ft | 270 kts | 339° |
| 2026-05-04 19:16 | 53.55112 | 49.94056 | 17551 ft | 273 kts | 339° |
| 2026-05-04 19:17 | 53.56934 | 49.92952 | 17945 ft | 289 kts | 339° |
| 2026-05-04 19:17 | 53.58898 | 49.91761 | 18088 ft | 311 kts | 339° |
| 2026-05-04 19:17 | 53.60275 | 49.90928 | 18180 ft | 325 kts | 339° |
| 2026-05-04 19:17 | 53.63215 | 49.89146 | 18527 ft | 344 kts | 339° |
| 2026-05-04 19:18 | 53.65452 | 49.87790 | 19064 ft | 348 kts | 339° |
| 2026-05-04 19:18 | 53.67739 | 49.86401 | 19681 ft | 351 kts | 339° |
| 2026-05-04 19:18 | 53.70044 | 49.84996 | 20288 ft | 353 kts | 339° |
| 2026-05-04 19:18 | 53.72362 | 49.83582 | 20905 ft | 356 kts | 339° |
| 2026-05-04 19:19 | 53.74691 | 49.82128 | 21523 ft | 358 kts | 336° |
| 2026-05-04 19:19 | 53.76156 | 49.80858 | 21926 ft | 359 kts | 328° |
| 2026-05-04 19:19 | 53.78127 | 49.78262 | 22533 ft | 362 kts | 316° |
| 2026-05-04 19:19 | 53.79732 | 49.74947 | 23148 ft | 366 kts | 304° |
| 2026-05-04 19:20 | 53.80874 | 49.71080 | 23697 ft | 371 kts | 293° |
| 2026-05-04 19:20 | 53.81763 | 49.66956 | 24177 ft | 374 kts | 293° |
| 2026-05-04 19:20 | 53.82653 | 49.62814 | 24656 ft | 376 kts | 293° |
| 2026-05-04 19:20 | 53.83553 | 49.58634 | 25120 ft | 379 kts | 294° |
| 2026-05-04 19:21 | 53.84456 | 49.54431 | 25579 ft | 381 kts | 294° |
| 2026-05-04 19:21 | 53.85360 | 49.50205 | 26033 ft | 383 kts | 294° |
| 2026-05-04 19:21 | 53.86273 | 49.45947 | 26472 ft | 386 kts | 294° |
| 2026-05-04 19:21 | 53.87188 | 49.41659 | 26897 ft | 388 kts | 294° |
| 2026-05-04 19:22 | 53.88089 | 49.37422 | 27319 ft | 391 kts | 295° |
| 2026-05-04 19:22 | 53.89020 | 49.33040 | 27748 ft | 394 kts | 295° |
| 2026-05-04 19:22 | 53.89947 | 49.28669 | 28167 ft | 396 kts | 295° |
| 2026-05-04 19:22 | 53.90882 | 49.24248 | 28602 ft | 399 kts | 295° |
| 2026-05-04 19:23 | 53.91819 | 49.19815 | 29016 ft | 401 kts | 296° |
| 2026-05-04 19:23 | 53.92761 | 49.15346 | 29430 ft | 403 kts | 296° |
| 2026-05-04 19:23 | 53.93706 | 49.10840 | 29833 ft | 406 kts | 296° |
| 2026-05-04 19:23 | 53.94710 | 49.06683 | 30157 ft | 403 kts | 303° |
| 2026-05-04 19:24 | 53.96181 | 49.02516 | 30477 ft | 401 kts | 308° |
| 2026-05-04 19:24 | 53.97658 | 48.98668 | 30764 ft | 404 kts | 308° |
| 2026-05-04 19:24 | 53.99214 | 48.94618 | 31052 ft | 407 kts | 307° |
| 2026-05-04 19:24 | 54.00757 | 48.90585 | 31330 ft | 410 kts | 307° |
| 2026-05-04 19:25 | 54.02315 | 48.86489 | 31618 ft | 412 kts | 306° |
| 2026-05-04 19:25 | 54.03872 | 48.82383 | 32012 ft | 412 kts | 306° |
| 2026-05-04 19:25 | 54.05425 | 48.78280 | 32401 ft | 413 kts | 306° |
| 2026-05-04 19:25 | 54.06979 | 48.74173 | 32773 ft | 413 kts | 305° |
| 2026-05-04 19:26 | 54.08512 | 48.70119 | 33137 ft | 414 kts | 305° |
| 2026-05-04 19:26 | 54.10025 | 48.66108 | 33501 ft | 414 kts | 304° |
| 2026-05-04 19:26 | 54.11581 | 48.61976 | 33871 ft | 415 kts | 304° |
| 2026-05-04 19:26 | 54.13162 | 48.57772 | 34202 ft | 415 kts | 304° |
| 2026-05-04 19:27 | 54.14720 | 48.53623 | 34514 ft | 416 kts | 304° |
| 2026-05-04 19:27 | 54.16281 | 48.49463 | 34812 ft | 416 kts | 304° |
| 2026-05-04 19:27 | 54.17833 | 48.45320 | 35093 ft | 417 kts | 303° |
| 2026-05-04 19:27 | 54.19443 | 48.41020 | 35377 ft | 417 kts | 303° |
| 2026-05-04 19:28 | 54.21012 | 48.36815 | 35643 ft | 418 kts | 303° |
| 2026-05-04 19:28 | 54.22564 | 48.32614 | 35909 ft | 418 kts | 303° |
| 2026-05-04 19:28 | 54.24129 | 48.28386 | 36173 ft | 418 kts | 303° |
| 2026-05-04 19:28 | 54.25685 | 48.24188 | 36427 ft | 419 kts | 303° |
| 2026-05-04 19:29 | 54.27188 | 48.20101 | 36661 ft | 419 kts | 302° |
| 2026-05-04 19:29 | 54.28708 | 48.15849 | 36910 ft | 420 kts | 301° |
| 2026-05-04 19:29 | 54.30147 | 48.11731 | 37129 ft | 420 kts | 301° |
| 2026-05-04 19:29 | 54.31632 | 48.07428 | 37358 ft | 421 kts | 300° |
| 2026-05-04 19:30 | 54.33118 | 48.03100 | 37584 ft | 421 kts | 300° |
| 2026-05-04 19:30 | 54.34589 | 47.98815 | 37806 ft | 421 kts | 300° |
| 2026-05-04 19:30 | 54.36093 | 47.94449 | 37932 ft | 422 kts | 300° |
| 2026-05-04 19:31 | 54.39078 | 47.85821 | 37946 ft | 420 kts | 300° |
| 2026-05-04 19:31 | 54.42052 | 47.77218 | 37944 ft | 419 kts | 300° |
| 2026-05-04 19:32 | 54.45020 | 47.68607 | 37944 ft | 418 kts | 301° |
| 2026-05-04 19:32 | 54.47950 | 47.60060 | 37944 ft | 417 kts | 300° |
| 2026-05-04 19:33 | 54.50878 | 47.51441 | 37946 ft | 417 kts | 301° |
| 2026-05-04 19:33 | 54.53807 | 47.42822 | 37949 ft | 417 kts | 300° |
| 2026-05-04 19:34 | 54.56729 | 47.34205 | 37951 ft | 417 kts | 300° |
| 2026-05-04 19:34 | 54.59652 | 47.25550 | 37951 ft | 417 kts | 300° |
| 2026-05-04 19:35 | 54.62544 | 47.16954 | 37950 ft | 417 kts | 300° |
| 2026-05-04 19:35 | 54.65446 | 47.08296 | 37947 ft | 416 kts | 300° |
| 2026-05-04 19:36 | 54.68333 | 46.99618 | 37947 ft | 416 kts | 300° |
| 2026-05-04 19:36 | 54.71177 | 46.90890 | 37942 ft | 416 kts | 299° |
| 2026-05-04 19:37 | 54.73988 | 46.82134 | 37940 ft | 416 kts | 299° |
| 2026-05-04 19:37 | 54.76793 | 46.73376 | 37939 ft | 416 kts | 299° |
| 2026-05-04 19:38 | 54.79599 | 46.64638 | 37936 ft | 416 kts | 299° |
| 2026-05-04 19:38 | 54.82614 | 46.56093 | 37933 ft | 415 kts | 308° |
| 2026-05-04 19:39 | 54.86147 | 46.48359 | 37929 ft | 415 kts | 308° |
| 2026-05-04 19:39 | 54.89785 | 46.40345 | 37928 ft | 416 kts | 308° |
| 2026-05-04 19:40 | 54.93324 | 46.32518 | 37931 ft | 415 kts | 308° |
| 2026-05-04 19:40 | 54.96920 | 46.24530 | 37929 ft | 416 kts | 308° |
| 2026-05-04 19:41 | 55.00479 | 46.16605 | 37932 ft | 415 kts | 308° |
| 2026-05-04 19:41 | 55.03833 | 46.09117 | 37926 ft | 415 kts | 308° |
| 2026-05-04 19:42 | 55.07410 | 46.01111 | 37924 ft | 415 kts | 308° |
| 2026-05-04 19:42 | 55.10938 | 45.93174 | 37918 ft | 414 kts | 308° |
| 2026-05-04 19:43 | 55.14475 | 45.85212 | 37917 ft | 414 kts | 308° |
| 2026-05-04 19:43 | 55.18005 | 45.77238 | 37914 ft | 414 kts | 307° |
| 2026-05-04 19:44 | 55.21523 | 45.69252 | 37911 ft | 414 kts | 307° |
| 2026-05-04 19:44 | 55.25034 | 45.61250 | 37912 ft | 414 kts | 307° |
| 2026-05-04 19:45 | 55.28545 | 45.53235 | 37902 ft | 414 kts | 307° |
| 2026-05-04 19:45 | 55.32059 | 45.45198 | 37906 ft | 415 kts | 307° |
| 2026-05-04 19:46 | 55.35611 | 45.37041 | 37902 ft | 415 kts | 307° |
| 2026-05-04 19:46 | 55.39114 | 45.28964 | 37897 ft | 415 kts | 307° |
| 2026-05-04 19:47 | 55.42625 | 45.20826 | 37897 ft | 415 kts | 307° |
| 2026-05-04 19:47 | 55.46121 | 45.12704 | 37902 ft | 416 kts | 307° |
| 2026-05-04 19:48 | 55.49604 | 45.04596 | 37899 ft | 415 kts | 307° |
| 2026-05-04 19:48 | 55.53084 | 44.96453 | 37898 ft | 415 kts | 307° |
| 2026-05-04 19:49 | 55.56057 | 44.87823 | 37896 ft | 415 kts | 291° |
| 2026-05-04 19:49 | 55.57214 | 44.77794 | 37892 ft | 417 kts | 274° |
| 2026-05-04 19:50 | 55.57473 | 44.67675 | 37888 ft | 417 kts | 274° |
| 2026-05-04 19:50 | 55.57730 | 44.57500 | 37887 ft | 417 kts | 274° |
| 2026-05-04 19:51 | 55.57981 | 44.47244 | 37884 ft | 417 kts | 274° |
| 2026-05-04 19:51 | 55.58224 | 44.37049 | 37882 ft | 417 kts | 274° |
| 2026-05-04 19:52 | 55.58458 | 44.26945 | 37882 ft | 418 kts | 274° |
| 2026-05-04 19:52 | 55.58687 | 44.16514 | 37880 ft | 418 kts | 274° |
| 2026-05-04 19:53 | 55.58905 | 44.06253 | 37878 ft | 418 kts | 274° |
| 2026-05-04 19:53 | 55.59108 | 43.96078 | 37880 ft | 418 kts | 273° |
| 2026-05-04 19:54 | 55.59300 | 43.85803 | 37879 ft | 418 kts | 274° |
| 2026-05-04 19:54 | 55.60423 | 43.75820 | 37881 ft | 414 kts | 292° |
| 2026-05-04 19:55 | 55.63150 | 43.66811 | 37879 ft | 414 kts | 300° |
| 2026-05-04 19:55 | 55.65561 | 43.59435 | 37877 ft | 414 kts | 300° |
| 2026-05-04 19:56 | 55.68430 | 43.50573 | 37876 ft | 414 kts | 300° |
| 2026-05-04 19:56 | 55.71292 | 43.41701 | 37873 ft | 415 kts | 300° |
| 2026-05-04 19:57 | 55.74159 | 43.32804 | 37875 ft | 415 kts | 300° |
| 2026-05-04 19:57 | 55.77014 | 43.23906 | 37874 ft | 415 kts | 300° |
| 2026-05-04 19:58 | 55.79394 | 43.14578 | 37874 ft | 416 kts | 285° |
| 2026-05-04 19:58 | 55.80193 | 43.04390 | 37874 ft | 417 kts | 276° |
| 2026-05-04 19:59 | 55.80776 | 42.94118 | 37871 ft | 417 kts | 277° |
| 2026-05-04 19:59 | 55.81361 | 42.83928 | 37874 ft | 417 kts | 277° |
| 2026-05-04 20:00 | 55.81936 | 42.73705 | 37876 ft | 417 kts | 276° |
| 2026-05-04 20:00 | 55.82491 | 42.63454 | 37876 ft | 417 kts | 276° |
| 2026-05-04 20:01 | 55.83033 | 42.53197 | 37871 ft | 417 kts | 276° |
| 2026-05-04 20:01 | 55.83571 | 42.42954 | 37876 ft | 416 kts | 276° |
| 2026-05-04 20:02 | 55.84117 | 42.32574 | 37882 ft | 416 kts | 276° |
| 2026-05-04 20:02 | 55.84647 | 42.22316 | 37876 ft | 416 kts | 276° |
| 2026-05-04 20:03 | 55.85161 | 42.12060 | 37876 ft | 416 kts | 276° |
| 2026-05-04 20:03 | 55.85666 | 42.01814 | 37874 ft | 416 kts | 276° |
| 2026-05-04 20:04 | 55.86187 | 41.91063 | 37876 ft | 416 kts | 276° |
| 2026-05-04 20:04 | 55.86658 | 41.81086 | 37873 ft | 416 kts | 275° |
| 2026-05-04 20:05 | 55.86556 | 41.70741 | 37876 ft | 417 kts | 268° |
| 2026-05-04 20:05 | 55.86250 | 41.60483 | 37877 ft | 417 kts | 268° |
| 2026-05-04 20:06 | 55.85935 | 41.50113 | 37878 ft | 417 kts | 268° |
| 2026-05-04 20:06 | 55.85609 | 41.39664 | 37875 ft | 417 kts | 268° |
| 2026-05-04 20:07 | 55.85277 | 41.29364 | 37877 ft | 417 kts | 268° |
| 2026-05-04 20:07 | 55.84945 | 41.19127 | 37877 ft | 417 kts | 268° |
| 2026-05-04 20:08 | 55.84593 | 41.08570 | 37878 ft | 417 kts | 267° |
| 2026-05-04 20:08 | 55.84232 | 40.98201 | 37877 ft | 417 kts | 267° |
| 2026-05-04 20:09 | 55.83910 | 40.89073 | 37881 ft | 417 kts | 267° |
| 2026-05-04 20:09 | 55.83533 | 40.78682 | 37154 ft | 422 kts | 267° |
| 2026-05-04 20:09 | 55.83346 | 40.73702 | 36747 ft | 416 kts | 267° |
| 2026-05-04 20:10 | 55.83140 | 40.68373 | 36242 ft | 412 kts | 267° |
| 2026-05-04 20:10 | 55.82944 | 40.63255 | 35772 ft | 409 kts | 267° |
| 2026-05-04 20:10 | 55.82751 | 40.58233 | 35283 ft | 406 kts | 267° |
| 2026-05-04 20:10 | 55.82556 | 40.53241 | 34806 ft | 403 kts | 266° |
| 2026-05-04 20:11 | 55.82363 | 40.48354 | 34314 ft | 401 kts | 266° |
| 2026-05-04 20:11 | 55.82167 | 40.43420 | 33820 ft | 399 kts | 266° |
| 2026-05-04 20:11 | 55.81969 | 40.38517 | 33307 ft | 396 kts | 266° |
| 2026-05-04 20:11 | 55.81766 | 40.33656 | 32848 ft | 392 kts | 266° |
| 2026-05-04 20:12 | 55.81561 | 40.28853 | 32357 ft | 389 kts | 266° |
| 2026-05-04 20:12 | 55.81356 | 40.24080 | 31887 ft | 385 kts | 266° |
| 2026-05-04 20:12 | 55.81152 | 40.19344 | 31431 ft | 382 kts | 266° |
| 2026-05-04 20:12 | 55.80949 | 40.14664 | 30982 ft | 379 kts | 266° |
| 2026-05-04 20:13 | 55.80741 | 40.09874 | 30523 ft | 376 kts | 265° |
| 2026-05-04 20:13 | 55.80535 | 40.05199 | 30084 ft | 373 kts | 265° |
| 2026-05-04 20:13 | 55.80333 | 40.00665 | 29619 ft | 371 kts | 265° |
| 2026-05-04 20:13 | 55.80129 | 39.96123 | 29203 ft | 367 kts | 265° |
| 2026-05-04 20:14 | 55.79925 | 39.91632 | 28791 ft | 363 kts | 265° |
| 2026-05-04 20:14 | 55.79719 | 39.87122 | 28389 ft | 360 kts | 265° |
| 2026-05-04 20:14 | 55.79517 | 39.82714 | 27995 ft | 356 kts | 265° |
| 2026-05-04 20:14 | 55.79302 | 39.78356 | 27712 ft | 352 kts | 264° |
| 2026-05-04 20:15 | 55.79032 | 39.73925 | 27632 ft | 358 kts | 263° |
| 2026-05-04 20:15 | 55.78735 | 39.69533 | 27547 ft | 359 kts | 263° |
| 2026-05-04 20:15 | 55.78425 | 39.65138 | 27465 ft | 359 kts | 263° |
| 2026-05-04 20:15 | 55.78116 | 39.60741 | 27380 ft | 358 kts | 263° |
| 2026-05-04 20:16 | 55.77811 | 39.56352 | 27296 ft | 358 kts | 263° |
| 2026-05-04 20:16 | 55.77511 | 39.51973 | 27206 ft | 357 kts | 263° |
| 2026-05-04 20:16 | 55.77206 | 39.47535 | 27107 ft | 357 kts | 263° |
| 2026-05-04 20:16 | 55.76905 | 39.43175 | 27008 ft | 356 kts | 263° |
| 2026-05-04 20:17 | 55.76605 | 39.38814 | 26906 ft | 355 kts | 263° |
| 2026-05-04 20:17 | 55.76305 | 39.34470 | 26807 ft | 355 kts | 263° |
| 2026-05-04 20:17 | 55.76005 | 39.30125 | 26704 ft | 354 kts | 263° |
| 2026-05-04 20:17 | 55.75702 | 39.25793 | 26612 ft | 353 kts | 263° |
| 2026-05-04 20:18 | 55.75398 | 39.21462 | 26511 ft | 353 kts | 263° |
| 2026-05-04 20:18 | 55.75093 | 39.17147 | 26416 ft | 352 kts | 263° |
| 2026-05-04 20:18 | 55.74788 | 39.12838 | 26318 ft | 351 kts | 263° |
| 2026-05-04 20:18 | 55.74484 | 39.08595 | 26221 ft | 351 kts | 263° |
| 2026-05-04 20:19 | 55.74173 | 39.04313 | 26120 ft | 350 kts | 263° |
| 2026-05-04 20:19 | 55.73860 | 39.00028 | 26023 ft | 350 kts | 263° |
| 2026-05-04 20:19 | 55.73549 | 38.95755 | 25922 ft | 349 kts | 263° |
| 2026-05-04 20:19 | 55.73237 | 38.91483 | 25778 ft | 349 kts | 262° |
| 2026-05-04 20:20 | 55.72915 | 38.87217 | 25353 ft | 348 kts | 262° |
| 2026-05-04 20:20 | 55.72586 | 38.82993 | 24997 ft | 344 kts | 262° |
| 2026-05-04 20:20 | 55.72252 | 38.78793 | 24637 ft | 342 kts | 262° |
| 2026-05-04 20:20 | 55.71920 | 38.74634 | 24288 ft | 340 kts | 262° |
| 2026-05-04 20:21 | 55.71592 | 38.70503 | 23943 ft | 338 kts | 262° |
| 2026-05-04 20:21 | 55.71271 | 38.66389 | 23596 ft | 336 kts | 262° |
| 2026-05-04 20:21 | 55.70663 | 38.58263 | 22878 ft | 333 kts | 262° |
| 2026-05-04 20:22 | 55.70357 | 38.54205 | 22532 ft | 331 kts | 262° |
| 2026-05-04 20:22 | 55.70050 | 38.50172 | 22205 ft | 330 kts | 262° |
| 2026-05-04 20:22 | 55.69743 | 38.46155 | 21867 ft | 328 kts | 262° |
| 2026-05-04 20:22 | 55.69438 | 38.42153 | 21532 ft | 327 kts | 262° |
| 2026-05-04 20:23 | 55.69136 | 38.38180 | 21200 ft | 325 kts | 262° |
| 2026-05-04 20:23 | 55.68834 | 38.34233 | 20866 ft | 324 kts | 262° |
| 2026-05-04 20:23 | 55.68528 | 38.30278 | 20539 ft | 322 kts | 262° |
| 2026-05-04 20:23 | 55.68221 | 38.26362 | 20208 ft | 320 kts | 262° |
| 2026-05-04 20:24 | 55.67915 | 38.22435 | 19887 ft | 319 kts | 262° |
| 2026-05-04 20:24 | 55.67609 | 38.18568 | 19731 ft | 317 kts | 262° |
| 2026-05-04 20:24 | 55.67299 | 38.14713 | 19519 ft | 315 kts | 262° |
| 2026-05-04 20:24 | 55.66982 | 38.10814 | 19114 ft | 314 kts | 262° |
| 2026-05-04 20:25 | 55.66670 | 38.06998 | 18729 ft | 313 kts | 262° |
| 2026-05-04 20:25 | 55.66361 | 38.03215 | 18370 ft | 311 kts | 262° |
| 2026-05-04 20:25 | 55.66045 | 37.99414 | 17982 ft | 309 kts | 262° |
| 2026-05-04 20:25 | 55.65731 | 37.95658 | 17572 ft | 308 kts | 262° |
| 2026-05-04 20:26 | 55.65420 | 37.91919 | 17179 ft | 306 kts | 262° |
| 2026-05-04 20:26 | 55.65058 | 37.88203 | 16561 ft | 308 kts | 255° |
| 2026-05-04 20:26 | 55.64298 | 37.84714 | 16073 ft | 302 kts | 243° |
| 2026-05-04 20:26 | 55.63260 | 37.81506 | 15518 ft | 298 kts | 241° |
| 2026-05-04 20:27 | 55.62225 | 37.78356 | 14967 ft | 296 kts | 241° |
| 2026-05-04 20:27 | 55.61185 | 37.75182 | 14426 ft | 293 kts | 241° |
| 2026-05-04 20:27 | 55.60497 | 37.73079 | 14058 ft | 291 kts | 241° |
| 2026-05-04 20:27 | 55.59484 | 37.69989 | 13501 ft | 289 kts | 241° |
| 2026-05-04 20:28 | 55.58476 | 37.66920 | 12906 ft | 287 kts | 241° |
| 2026-05-04 20:28 | 55.57480 | 37.63885 | 12314 ft | 284 kts | 241° |
| 2026-05-04 20:28 | 55.56409 | 37.60980 | 11740 ft | 282 kts | 231° |
| 2026-05-04 20:28 | 55.54967 | 37.58637 | 11175 ft | 282 kts | 217° |
| 2026-05-04 20:29 | 55.53200 | 37.57031 | 10603 ft | 283 kts | 202° |
| 2026-05-04 20:29 | 55.51275 | 37.56298 | 10098 ft | 282 kts | 189° |
| 2026-05-04 20:29 | 55.49465 | 37.55520 | 9969 ft | 255 kts | 214° |
| 2026-05-04 20:29 | 55.48356 | 37.53388 | 9835 ft | 228 kts | 251° |
| 2026-05-04 20:30 | 55.48309 | 37.50761 | 9601 ft | 214 kts | 290° |
| 2026-05-04 20:30 | 55.49094 | 37.48537 | 9166 ft | 216 kts | 310° |
| 2026-05-04 20:30 | 55.50349 | 37.47052 | 8706 ft | 222 kts | 337° |
| 2026-05-04 20:30 | 55.51894 | 37.46780 | 8249 ft | 230 kts | 6° |
| 2026-05-04 20:31 | 55.53450 | 37.47495 | 7880 ft | 228 kts | 12° |
| 2026-05-04 20:31 | 55.54905 | 37.48217 | 7785 ft | 205 kts | 11° |
| 2026-05-04 20:31 | 55.56219 | 37.48869 | 7548 ft | 191 kts | 11° |
| 2026-05-04 20:31 | 55.57556 | 37.49518 | 6828 ft | 202 kts | 11° |
| 2026-05-04 20:32 | 55.58937 | 37.49953 | 6199 ft | 200 kts | 356° |
| 2026-05-04 20:32 | 55.60240 | 37.49393 | 5566 ft | 189 kts | 322° |
| 2026-05-04 20:32 | 55.60987 | 37.47627 | 4973 ft | 178 kts | 282° |
| 2026-05-04 20:32 | 55.60864 | 37.45539 | 4383 ft | 173 kts | 243° |
| 2026-05-04 20:33 | 55.59954 | 37.44187 | 3789 ft | 177 kts | 202° |
| 2026-05-04 20:33 | 55.58720 | 37.44299 | 3230 ft | 187 kts | 163° |
| 2026-05-04 20:33 | 55.57794 | 37.45979 | 3009 ft | 196 kts | 119° |
| 2026-05-04 20:33 | 55.57674 | 37.48359 | 2909 ft | 196 kts | 84° |
| 2026-05-04 20:34 | 55.58074 | 37.50641 | 2709 ft | 197 kts | 60° |
| 2026-05-04 20:34 | 55.59026 | 37.52342 | 2714 ft | 195 kts | 25° |
| 2026-05-04 20:34 | 55.60367 | 37.52864 | 2713 ft | 185 kts | 348° |
| 2026-05-04 20:34 | 55.61513 | 37.52159 | 2712 ft | 172 kts | 318° |
| 2026-05-04 20:35 | 55.62310 | 37.50696 | 2550 ft | 161 kts | 299° |
| 2026-05-04 20:35 | 55.62970 | 37.49113 | 2222 ft | 157 kts | 295° |
| 2026-05-04 20:35 | 55.63369 | 37.47352 | 2214 ft | 154 kts | 276° |
| 2026-05-04 20:35 | 55.63392 | 37.45488 | 2201 ft | 150 kts | 254° |
| 2026-05-04 20:36 | 55.63039 | 37.43737 | 2206 ft | 149 kts | 248° |
| 2026-05-04 20:36 | 55.62686 | 37.42038 | 2148 ft | 149 kts | 247° |
| 2026-05-04 20:36 | 55.62318 | 37.40332 | 2010 ft | 147 kts | 247° |
| 2026-05-04 20:36 | 55.61954 | 37.38676 | 1839 ft | 142 kts | 247° |
| 2026-05-04 20:37 | 55.61605 | 37.37098 | 1680 ft | 132 kts | 246° |
| 2026-05-04 20:37 | 55.61275 | 37.35612 | 1497 ft | 129 kts | 245° |
| 2026-05-04 20:37 | 55.60943 | 37.34126 | 1329 ft | 129 kts | 245° |
| 2026-05-04 20:37 | 55.60615 | 37.32656 | 1159 ft | 129 kts | 245° |
| 2026-05-04 20:38 | 55.60279 | 37.31162 | 998 ft | 131 kts | 244° |
| 2026-05-04 20:38 | 55.59945 | 37.29649 | 816 ft | 132 kts | 245° |
| 2026-05-04 20:38 | 55.59604 | 37.28150 | 684 ft | 120 kts | 245° |
| 2026-05-04 20:38 | 55.59340 | 37.27003 | 669 ft | 77 kts | 248° |
| 2026-05-04 20:39 | 55.59221 | 37.26465 | 669 ft | 34 kts | 249° |
| 2026-05-04 20:39 | 55.59212 | 37.26212 | 669 ft | 14 kts | 358° |
| 2026-05-04 20:39 | 55.59307 | 37.26268 | 669 ft | 14 kts | 24° |
| 2026-05-04 20:39 | 55.59405 | 37.26344 | 668 ft | 15 kts | 24° |
| 2026-05-04 20:40 | 55.59461 | 37.26477 | 669 ft | 15 kts | 67° |
| 2026-05-04 20:40 | 55.59497 | 37.26633 | 669 ft | 15 kts | 68° |
| 2026-05-04 20:40 | 55.59535 | 37.26797 | 669 ft | 16 kts | 63° |
| 2026-05-04 20:40 | 55.59612 | 37.26961 | 669 ft | 18 kts | 46° |
| 2026-05-04 20:41 | 55.59707 | 37.27135 | 670 ft | 18 kts | 46° |
| 2026-05-04 20:41 | 55.59788 | 37.27287 | 672 ft | 17 kts | 46° |
| 2026-05-04 20:41 | 55.59867 | 37.27434 | 677 ft | 15 kts | 46° |
| 2026-05-04 20:41 | 55.59934 | 37.27560 | 678 ft | 13 kts | 46° |
| 2026-05-04 20:42 | 55.59986 | 37.27686 | 680 ft | 13 kts | 48° |
| 2026-05-04 20:42 | 55.60056 | 37.27786 | 680 ft | 13 kts | 35° |
| 2026-05-04 20:42 | 55.60111 | 37.27891 | 679 ft | 10 kts | 61° |
| 2026-05-04 20:42 | 55.60092 | 37.27994 | 678 ft | 10 kts | 121° |
| 2026-05-04 20:43 | 55.60101 | 37.28090 | 680 ft | 9 kts | 35° |
| 2026-05-04 20:43 | 55.60140 | 37.28139 | 680 ft | 3 kts | 34° |
| 2026-05-04 20:43 | 55.60143 | 37.28143 | 680 ft | 0 kts | 37° |